Time;durP1;ratioP1;P1;durP2;ratioP2;P2;SDS_P1;SDS_P2;PMS_P1;PMS_P2;Temp;Humidity;BMP_temperature;BMP_pressure;BME280_temperature;BME280_humidity;BME280_pressure;Samples;Min_cycle;Max_cycle;Signal;HPM_P1;HPM_P2
2023/07/19 00:00:15;;;;;;;5.50;4.40;;;25.80;70.30;;;;;;5073237;28;20326;-71
2023/07/19 00:02:42;;;;;;;5.00;3.97;;;25.70;70.50;;;;;;5091228;28;20201;-70
2023/07/19 00:05:09;;;;;;;6.77;4.27;;;25.70;70.90;;;;;;5090472;28;20546;-71
2023/07/19 00:07:39;;;;;;;4.67;4.03;;;25.60;71.10;;;;;;5088120;28;20270;-70
2023/07/19 00:10:08;;;;;;;5.37;4.37;;;25.60;71.50;;;;;;5090242;28;20561;-70
2023/07/19 00:12:35;;;;;;;5.27;4.23;;;25.60;71.50;;;;;;5091174;28;20254;-71
2023/07/19 00:15:02;;;;;;;4.40;4.00;;;25.50;71.20;;;;;;5090833;28;20220;-70
2023/07/19 00:17:29;;;;;;;5.23;4.07;;;25.50;71.20;;;;;;5090411;28;20205;-70
2023/07/19 00:19:55;;;;;;;4.20;3.80;;;25.40;71.60;;;;;;5086240;28;20221;-70
2023/07/19 00:22:22;;;;;;;5.53;4.10;;;25.20;72.10;;;;;;5081703;28;20211;-70
2023/07/19 00:24:49;;;;;;;4.10;3.80;;;25.10;72.20;;;;;;5090281;28;20766;-70
2023/07/19 00:27:17;;;;;;;4.07;3.60;;;25.00;72.30;;;;;;5088952;28;21631;-71
2023/07/19 00:29:44;;;;;;;5.63;3.93;;;25.00;72.40;;;;;;5078451;28;20224;-70
2023/07/19 00:32:11;;;;;;;4.77;4.03;;;25.00;72.20;;;;;;5090561;28;20231;-71
2023/07/19 00:34:38;;;;;;;4.00;3.60;;;25.10;72.20;;;;;;5090025;28;20288;-70
2023/07/19 00:37:05;;;;;;;5.43;3.80;;;25.10;72.20;;;;;;5089070;28;20526;-70
2023/07/19 00:39:32;;;;;;;5.20;3.87;;;25.10;71.90;;;;;;5087616;28;20220;-71
2023/07/19 00:41:59;;;;;;;4.57;4.10;;;25.10;71.80;;;;;;5090383;28;20196;-71
2023/07/19 00:48:23;;;;;;;5.50;3.60;;;25.10;72.30;;;;;;5074063;28;20181;-71
2023/07/19 00:50:53;;;;;;;4.53;3.57;;;25.10;72.10;;;;;;5080589;28;20208;-70
2023/07/19 00:53:20;;;;;;;4.23;3.83;;;25.10;71.60;;;;;;5069213;28;20225;-71
2023/07/19 00:55:50;;;;;;;4.07;3.53;;;25.10;71.60;;;;;;5068992;28;20649;-71
2023/07/19 00:58:18;;;;;;;4.40;3.70;;;25.10;71.50;;;;;;5069128;28;20219;-71
2023/07/19 01:00:46;;;;;;;4.43;3.80;;;25.10;71.50;;;;;;5088886;28;20204;-71
2023/07/19 01:03:13;;;;;;;4.67;4.00;;;25.00;71.50;;;;;;5086049;28;20219;-70
2023/07/19 01:05:41;;;;;;;4.33;3.90;;;25.00;71.50;;;;;;5079052;28;20206;-71
2023/07/19 01:08:08;;;;;;;4.33;3.50;;;25.00;71.80;;;;;;5090136;28;20211;-71
2023/07/19 01:10:35;;;;;;;4.63;4.00;;;25.00;72.60;;;;;;5088660;28;20211;-70
2023/07/19 01:13:06;;;;;;;6.07;4.50;;;25.00;72.40;;;;;;5086309;28;20713;-71
2023/07/19 01:15:33;;;;;;;5.47;4.27;;;24.90;71.90;;;;;;5088652;28;20225;-71
2023/07/19 01:18:00;;;;;;;4.30;3.83;;;24.80;71.90;;;;;;5089937;28;20218;-71
2023/07/19 01:20:26;;;;;;;4.07;3.50;;;24.80;72.10;;;;;;5088410;28;20553;-71
2023/07/19 01:22:55;;;;;;;5.60;4.00;;;24.80;72.20;;;;;;5090731;28;20702;-71
2023/07/19 01:25:22;;;;;;;5.53;3.57;;;24.80;72.40;;;;;;5081736;28;20797;-70
2023/07/19 01:27:49;;;;;;;6.13;4.10;;;24.80;72.30;;;;;;5089410;28;20215;-70
2023/07/19 01:30:16;;;;;;;4.37;3.97;;;24.80;72.20;;;;;;5083320;28;20220;-70
2023/07/19 01:32:44;;;;;;;4.63;4.13;;;24.80;72.10;;;;;;5090714;28;20217;-70
2023/07/19 01:35:11;;;;;;;4.80;4.00;;;24.80;71.90;;;;;;5086027;28;20565;-70
2023/07/19 01:37:39;;;;;;;4.87;4.20;;;24.80;71.80;;;;;;5090816;28;20331;-70
2023/07/19 01:40:10;;;;;;;5.10;4.47;;;24.80;71.80;;;;;;5078400;28;20611;-70
2023/07/19 01:42:36;;;;;;;6.47;4.30;;;24.80;71.90;;;;;;5076543;28;20192;-71
2023/07/19 01:45:04;;;;;;;7.70;4.73;;;24.80;72.00;;;;;;5085040;28;20212;-70
2023/07/19 01:47:31;;;;;;;6.37;4.37;;;24.80;71.90;;;;;;5087426;28;20204;-71
2023/07/19 01:49:58;;;;;;;5.80;4.87;;;24.80;71.90;;;;;;5079015;28;20220;-71
2023/07/19 01:52:25;;;;;;;5.70;4.80;;;24.80;71.90;;;;;;5083081;28;20220;-71
2023/07/19 01:54:51;;;;;;;6.67;4.73;;;24.80;72.20;;;;;;5087258;28;20210;-70
2023/07/19 01:57:20;;;;;;;5.30;4.43;;;24.60;72.30;;;;;;5090727;28;20235;-71
2023/07/19 01:59:46;;;;;;;6.30;4.40;;;24.70;72.60;;;;;;5080659;28;20197;-71
2023/07/19 02:02:13;;;;;;;6.87;4.40;;;24.70;72.50;;;;;;5083958;28;20579;-71
2023/07/19 02:04:40;;;;;;;5.87;4.20;;;24.60;72.50;;;;;;5090623;28;20220;-71
2023/07/19 02:07:07;;;;;;;4.87;4.30;;;24.60;72.50;;;;;;5090313;28;20838;-71
2023/07/19 02:09:34;;;;;;;6.27;4.67;;;24.60;72.50;;;;;;5091602;28;20238;-70
2023/07/19 02:12:01;;;;;;;6.63;4.40;;;24.70;72.60;;;;;;5091038;28;20637;-70
2023/07/19 02:14:29;;;;;;;5.20;4.50;;;24.60;72.50;;;;;;5085333;28;20676;-70
2023/07/19 02:16:56;;;;;;;6.80;4.37;;;24.70;72.60;;;;;;5093306;28;20318;-71
2023/07/19 02:19:23;;;;;;;6.43;4.73;;;24.60;72.50;;;;;;5087756;28;20220;-71
2023/07/19 02:21:50;;;;;;;4.40;4.00;;;24.60;72.50;;;;;;5088001;28;20232;-71
2023/07/19 02:24:17;;;;;;;5.57;4.70;;;24.50;72.40;;;;;;5091048;28;20215;-71
2023/07/19 02:26:44;;;;;;;6.80;4.37;;;24.40;72.60;;;;;;5088665;28;20231;-70
2023/07/19 02:29:11;;;;;;;5.33;4.00;;;24.40;72.60;;;;;;5089824;28;20302;-71
2023/07/19 02:31:39;;;;;;;5.77;4.27;;;24.40;72.70;;;;;;5086429;28;20200;-71
2023/07/19 02:34:07;;;;;;;4.73;4.23;;;24.50;72.80;;;;;;5093057;28;20251;-71
2023/07/19 02:36:34;;;;;;;4.37;3.83;;;24.40;72.70;;;;;;5093654;28;20547;-70
2023/07/19 02:39:02;;;;;;;4.80;4.13;;;24.50;72.70;;;;;;5093481;28;20204;-71
2023/07/19 02:41:29;;;;;;;6.10;4.67;;;24.50;72.70;;;;;;5093386;28;20188;-71
2023/07/19 02:43:56;;;;;;;5.10;4.23;;;24.40;72.70;;;;;;5079600;28;20676;-70
2023/07/19 02:46:23;;;;;;;5.20;4.67;;;24.40;72.90;;;;;;5084517;28;20735;-70
2023/07/19 02:48:51;;;;;;;6.33;4.43;;;24.50;73.10;;;;;;5092531;28;20200;-70
2023/07/19 02:51:18;;;;;;;6.17;4.63;;;24.40;73.10;;;;;;5093977;28;20214;-71
2023/07/19 02:53:45;;;;;;;4.63;3.93;;;24.40;73.20;;;;;;5093075;28;20232;-71
2023/07/19 02:56:12;;;;;;;8.37;4.73;;;24.30;73.30;;;;;;5084166;28;20191;-70
2023/07/19 02:58:39;;;;;;;5.97;4.87;;;24.30;73.30;;;;;;5092821;28;20202;-70
2023/07/19 03:01:06;;;;;;;6.77;4.60;;;24.30;73.30;;;;;;5083516;28;20228;-71
2023/07/19 03:03:33;;;;;;;6.23;4.40;;;24.30;73.20;;;;;;5092893;28;20197;-70
2023/07/19 03:06:02;;;;;;;4.80;4.00;;;24.30;73.20;;;;;;5079872;28;20207;-70
2023/07/19 03:08:29;;;;;;;5.00;4.33;;;24.30;73.20;;;;;;5092905;28;20607;-70
2023/07/19 03:10:56;;;;;;;4.33;3.93;;;24.30;73.20;;;;;;5085544;28;20559;-71
2023/07/19 03:13:23;;;;;;;4.57;4.10;;;24.30;73.00;;;;;;5092826;28;20228;-71
2023/07/19 03:15:50;;;;;;;6.33;4.80;;;24.30;73.10;;;;;;5084540;28;20229;-71
2023/07/19 03:18:16;;;;;;;5.57;3.83;;;24.30;73.30;;;;;;5092381;28;20633;-71
2023/07/19 03:20:43;;;;;;;4.23;3.83;;;24.30;73.20;;;;;;5089334;28;20212;-71
2023/07/19 03:23:12;;;;;;;5.73;4.03;;;24.30;73.20;;;;;;5072984;28;20197;-70
2023/07/19 03:25:39;;;;;;;5.47;4.30;;;24.30;73.20;;;;;;5079991;28;20218;-71
2023/07/19 03:28:05;;;;;;;6.17;4.67;;;24.20;73.10;;;;;;5092379;28;20214;-71
2023/07/19 03:30:32;;;;;;;5.30;4.30;;;24.20;73.10;;;;;;5084351;28;20216;-71
2023/07/19 03:32:59;;;;;;;6.60;4.43;;;24.20;73.10;;;;;;5086076;28;20680;-71
2023/07/19 03:35:26;;;;;;;6.83;4.83;;;24.20;73.10;;;;;;5079388;28;20235;-71
2023/07/19 03:37:53;;;;;;;4.63;3.83;;;24.10;73.20;;;;;;5091574;28;20207;-71
2023/07/19 03:40:21;;;;;;;5.70;4.53;;;24.00;73.30;;;;;;5091391;28;20205;-71
2023/07/19 03:42:48;;;;;;;5.30;4.10;;;24.00;73.60;;;;;;5091710;28;20215;-70
2023/07/19 03:45:15;;;;;;;5.57;4.73;;;23.90;73.60;;;;;;5092313;28;20374;-71
2023/07/19 03:47:42;;;;;;;5.33;4.70;;;23.90;73.80;;;;;;5091578;28;20204;-71
2023/07/19 03:50:09;;;;;;;5.93;4.20;;;23.90;73.80;;;;;;5091596;28;20220;-71
2023/07/19 03:52:36;;;;;;;5.77;4.20;;;23.80;73.80;;;;;;5091826;28;20214;-71
2023/07/19 03:55:04;;;;;;;6.97;4.27;;;23.80;73.90;;;;;;5081745;28;20212;-71
2023/07/19 03:57:32;;;;;;;5.63;4.10;;;23.80;74.20;;;;;;5090581;28;20196;-71
2023/07/19 03:59:59;;;;;;;5.57;4.67;;;23.70;74.50;;;;;;5084025;28;20220;-71
2023/07/19 04:02:26;;;;;;;4.67;4.27;;;23.60;74.60;;;;;;5085717;28;20196;-71
2023/07/19 04:04:52;;;;;;;8.40;4.10;;;23.50;74.70;;;;;;5088982;28;20269;-71
2023/07/19 04:07:19;;;;;;;4.40;3.90;;;23.50;74.80;;;;;;5091892;28;20708;-71
2023/07/19 04:09:46;;;;;;;5.17;4.23;;;23.50;74.90;;;;;;5091725;28;20222;-71
2023/07/19 04:12:13;;;;;;;5.10;4.10;;;23.50;75.00;;;;;;5091209;28;20736;-70
2023/07/19 04:14:41;;;;;;;4.50;4.10;;;23.40;74.90;;;;;;5091416;28;20225;-71
2023/07/19 04:17:08;;;;;;;4.57;4.17;;;23.40;75.20;;;;;;5090890;28;20193;-71
2023/07/19 04:19:35;;;;;;;5.90;4.23;;;23.30;75.00;;;;;;5087079;28;20342;-71
2023/07/19 04:22:02;;;;;;;4.40;4.00;;;23.30;75.00;;;;;;5087462;28;20203;-70
2023/07/19 04:24:29;;;;;;;5.47;4.37;;;23.30;75.00;;;;;;5091350;28;20204;-71
2023/07/19 04:26:56;;;;;;;6.30;4.30;;;23.30;75.10;;;;;;5090656;28;20203;-71
2023/07/19 04:29:23;;;;;;;4.70;3.87;;;23.30;75.30;;;;;;5090157;28;20204;-71
2023/07/19 04:31:51;;;;;;;4.53;4.10;;;23.30;75.20;;;;;;5084891;28;20223;-71
2023/07/19 04:34:20;;;;;;;8.17;4.27;;;23.30;75.20;;;;;;5085208;28;20707;-71
2023/07/19 04:36:48;;;;;;;7.50;4.40;;;23.40;75.20;;;;;;5088100;28;20317;-71
2023/07/19 04:39:14;;;;;;;5.73;4.70;;;23.40;75.10;;;;;;5089466;28;20232;-71
2023/07/19 04:41:41;;;;;;;5.70;3.77;;;23.50;74.90;;;;;;5085361;28;20193;-71
2023/07/19 04:44:08;;;;;;;5.90;4.20;;;23.50;74.80;;;;;;5072191;28;20197;-71
2023/07/19 04:46:35;;;;;;;5.33;4.20;;;23.60;74.80;;;;;;5077064;28;20225;-71
2023/07/19 04:49:03;;;;;;;4.20;3.80;;;23.60;74.60;;;;;;5088110;28;20288;-70
2023/07/19 04:51:30;;;;;;;6.47;4.27;;;23.70;74.60;;;;;;5087544;28;20208;-69
2023/07/19 04:53:58;;;;;;;4.70;4.20;;;23.80;74.30;;;;;;5071566;28;20534;-69
2023/07/19 04:56:26;;;;;;;7.13;4.63;;;23.80;74.00;;;;;;5071499;28;20201;-69
2023/07/19 04:58:53;;;;;;;5.43;4.30;;;23.90;73.90;;;;;;5070581;28;20667;-70
2023/07/19 05:01:20;;;;;;;6.97;4.63;;;23.90;73.70;;;;;;5079327;28;20196;-69
2023/07/19 05:03:47;;;;;;;5.73;4.27;;;24.00;73.60;;;;;;5085264;28;20226;-69
2023/07/19 05:06:15;;;;;;;5.93;4.30;;;24.00;73.60;;;;;;5089330;28;20220;-69
2023/07/19 05:08:43;;;;;;;6.73;4.53;;;24.10;73.30;;;;;;5090631;28;20204;-71
2023/07/19 05:11:10;;;;;;;8.90;5.03;;;24.20;73.30;;;;;;5089458;28;20276;-70
2023/07/19 05:13:37;;;;;;;7.30;5.17;;;24.30;73.20;;;;;;5070471;28;20690;-69
2023/07/19 05:16:04;;;;;;;8.33;4.67;;;24.30;73.10;;;;;;5076345;28;20304;-70
2023/07/19 05:18:31;;;;;;;7.50;4.70;;;24.40;72.90;;;;;;5080622;28;20698;-70
2023/07/19 05:20:58;;;;;;;5.03;3.83;;;24.40;72.80;;;;;;5086953;28;20226;-70
2023/07/19 05:23:26;;;;;;;7.50;4.53;;;24.40;72.60;;;;;;5090371;28;20297;-70
2023/07/19 05:25:53;;;;;;;6.57;4.20;;;24.40;72.90;;;;;;5090255;28;20304;-69
2023/07/19 05:28:20;;;;;;;6.37;4.17;;;24.40;72.50;;;;;;5090914;28;20188;-69
2023/07/19 05:30:47;;;;;;;4.67;4.23;;;24.50;72.40;;;;;;5090434;28;20199;-71
2023/07/19 05:33:14;;;;;;;6.97;4.50;;;24.50;72.40;;;;;;5090484;28;20327;-70
2023/07/19 05:35:42;;;;;;;5.50;4.00;;;24.60;72.90;;;;;;5081889;28;20201;-71
2023/07/19 05:38:09;;;;;;;5.60;3.90;;;24.60;72.50;;;;;;5070071;28;20208;-70
2023/07/19 05:40:37;;;;;;;5.40;4.40;;;24.60;72.50;;;;;;5073772;28;20218;-70
2023/07/19 05:43:04;;;;;;;5.80;4.50;;;24.60;72.50;;;;;;5082706;28;20213;-70
2023/07/19 05:45:32;;;;;;;7.87;4.60;;;24.70;72.50;;;;;;5085555;28;20292;-69
2023/07/19 05:47:59;;;;;;;4.70;3.93;;;24.70;72.40;;;;;;5088540;28;20220;-69
2023/07/19 05:50:27;;;;;;;6.73;4.60;;;24.80;72.50;;;;;;5094584;28;20731;-69
2023/07/19 05:52:54;;;;;;;4.93;4.07;;;24.80;73.10;;;;;;5092147;28;20215;-69
2023/07/19 05:55:21;;;;;;;5.47;4.50;;;24.80;72.00;;;;;;5090118;28;20216;-69
2023/07/19 05:57:49;;;;;;;5.90;4.10;;;24.80;72.20;;;;;;5093462;28;20200;-69
2023/07/19 06:00:24;;;;;;;4.73;3.93;;;24.90;72.00;;;;;;5093626;28;20615;-69
2023/07/19 06:02:51;;;;;;;4.83;4.43;;;24.90;72.00;;;;;;5091039;28;20187;-69
2023/07/19 06:05:18;;;;;;;5.67;4.20;;;24.90;71.70;;;;;;5083261;28;20745;-71
2023/07/19 06:07:46;;;;;;;5.40;4.10;;;25.00;71.70;;;;;;5075308;28;20738;-70
2023/07/19 06:10:13;;;;;;;4.93;4.30;;;25.00;71.70;;;;;;5081523;28;20207;-70
2023/07/19 06:12:41;;;;;;;6.40;4.73;;;25.10;71.60;;;;;;5092782;28;20224;-71
2023/07/19 06:15:10;;;;;;;5.33;4.20;;;25.10;71.60;;;;;;5088872;28;20707;-72
2023/07/19 06:17:37;;;;;;;6.10;4.10;;;25.10;71.70;;;;;;5094104;28;20607;-72
2023/07/19 06:20:05;;;;;;;7.33;4.13;;;25.10;71.90;;;;;;5093997;28;20234;-72
2023/07/19 06:22:32;;;;;;;5.23;4.67;;;25.20;72.00;;;;;;5094140;28;20297;-70
2023/07/19 06:25:00;;;;;;;5.83;5.23;;;25.20;71.60;;;;;;5088475;28;20195;-70
2023/07/19 06:27:27;;;;;;;6.20;4.50;;;25.30;71.60;;;;;;5093815;28;20223;-70
2023/07/19 06:29:53;;;;;;;5.57;4.40;;;25.40;71.40;;;;;;5093769;28;20205;-71
2023/07/19 06:32:22;;;;;;;5.87;4.73;;;25.40;71.30;;;;;;5092998;28;20812;-69
2023/07/19 06:34:49;;;;;;;6.30;4.70;;;25.40;71.20;;;;;;5074502;28;20304;-69
2023/07/19 06:37:16;;;;;;;4.83;4.43;;;25.50;71.30;;;;;;5091091;28;20229;-69
2023/07/19 06:39:43;;;;;;;5.93;4.67;;;25.60;70.90;;;;;;5074637;28;20229;-69
2023/07/19 06:42:10;;;;;;;6.73;4.40;;;25.70;70.70;;;;;;5081317;28;20204;-72
2023/07/19 06:44:36;;;;;;;5.70;4.20;;;25.80;70.30;;;;;;5071831;28;20225;-72
2023/07/19 06:47:04;;;;;;;8.80;4.67;;;25.80;70.30;;;;;;5088969;28;20197;-71
2023/07/19 06:49:32;;;;;;;6.50;4.67;;;25.80;70.30;;;;;;5054843;28;20193;-72
2023/07/19 06:51:59;;;;;;;6.47;4.40;;;25.90;70.10;;;;;;5091926;28;20235;-71
2023/07/19 06:54:27;;;;;;;6.13;4.53;;;25.90;69.60;;;;;;5091922;28;20232;-71
2023/07/19 06:56:54;;;;;;;4.93;4.07;;;26.00;69.50;;;;;;5073651;28;20214;-70
2023/07/19 06:59:21;;;;;;;6.30;4.20;;;26.10;69.40;;;;;;5071327;28;20241;-71
2023/07/19 07:01:48;;;;;;;5.67;4.60;;;26.20;68.90;;;;;;5071389;28;20208;-71
2023/07/19 07:04:16;;;;;;;4.67;4.23;;;26.20;68.40;;;;;;5070836;28;20300;-71
2023/07/19 07:06:44;;;;;;;4.73;3.53;;;26.40;67.90;;;;;;5085121;28;20220;-71
2023/07/19 07:09:11;;;;;;;4.90;4.37;;;26.40;67.00;;;;;;5090926;28;20305;-71
2023/07/19 07:11:39;;;;;;;4.83;4.10;;;26.40;66.70;;;;;;5091112;28;20213;-71
2023/07/19 07:14:06;;;;;;;7.40;4.30;;;26.40;66.80;;;;;;5091005;28;20629;-71
2023/07/19 07:16:33;;;;;;;6.77;4.20;;;26.50;66.80;;;;;;5081201;28;20216;-72
2023/07/19 07:18:59;;;;;;;7.20;3.53;;;26.70;65.90;;;;;;5072740;28;20222;-72
2023/07/19 07:21:27;;;;;;;6.70;3.90;;;26.70;65.40;;;;;;5091268;28;20305;-71
2023/07/19 07:23:55;;;;;;;5.77;3.80;;;26.90;65.10;;;;;;5091231;28;20293;-72
2023/07/19 07:26:22;;;;;;;6.50;3.97;;;26.90;63.50;;;;;;5091397;28;20236;-71
2023/07/19 07:28:49;;;;;;;4.43;3.27;;;27.00;61.80;;;;;;5078393;28;20221;-72
2023/07/19 07:31:16;;;;;;;9.20;3.77;;;26.90;61.60;;;;;;5071383;28;20886;-72
2023/07/19 07:33:43;;;;;;;5.20;3.80;;;27.00;61.50;;;;;;5071291;28;20515;-71
2023/07/19 07:36:11;;;;;;;5.63;3.70;;;27.10;61.80;;;;;;5071127;28;20241;-72
2023/07/19 07:38:38;;;;;;;8.00;3.97;;;27.30;62.00;;;;;;5071085;28;20206;-71
2023/07/19 07:41:06;;;;;;;3.90;3.33;;;27.30;60.20;;;;;;5084835;28;20576;-71
2023/07/19 07:43:33;;;;;;;5.43;4.23;;;27.40;59.70;;;;;;5077503;28;20276;-71
2023/07/19 07:46:01;;;;;;;3.73;3.10;;;27.50;59.80;;;;;;5071039;28;20284;-71
2023/07/19 07:48:28;;;;;;;3.67;3.37;;;27.60;59.50;;;;;;5070820;28;20252;-71
2023/07/19 07:50:55;;;;;;;7.60;3.53;;;27.70;59.10;;;;;;5071312;28;20294;-71
2023/07/19 07:53:22;;;;;;;8.90;3.67;;;27.80;57.50;;;;;;5085724;28;20733;-71
2023/07/19 07:55:50;;;;;;;6.73;4.27;;;27.80;58.30;;;;;;5091128;28;20249;-71
2023/07/19 07:58:18;;;;;;;5.50;3.60;;;27.90;59.10;;;;;;5090985;28;20313;-71
2023/07/19 08:00:45;;;;;;;3.40;3.10;;;28.00;58.00;;;;;;5091577;28;20294;-71
2023/07/19 08:03:13;;;;;;;5.33;2.90;;;28.10;58.00;;;;;;5090546;28;20211;-71
2023/07/19 08:05:41;;;;;;;3.97;3.07;;;28.10;55.80;;;;;;5083653;28;20322;-71
2023/07/19 08:08:09;;;;;;;4.67;3.20;;;28.10;55.70;;;;;;5089971;28;20732;-71
2023/07/19 08:10:39;;;;;;;5.40;3.63;;;28.20;55.90;;;;;;5090752;28;20694;-71
2023/07/19 08:13:06;;;;;;;4.07;3.00;;;28.20;54.90;;;;;;5091151;28;20232;-71
2023/07/19 08:15:34;;;;;;;3.73;3.00;;;28.30;55.10;;;;;;5090025;28;20227;-71
2023/07/19 08:18:01;;;;;;;4.70;2.83;;;28.50;54.30;;;;;;5070217;28;20214;-71
2023/07/19 08:20:28;;;;;;;4.23;3.30;;;28.70;53.70;;;;;;5070590;28;20244;-71
2023/07/19 08:22:57;;;;;;;4.40;3.27;;;28.80;54.00;;;;;;5070370;28;20223;-71
2023/07/19 08:25:24;;;;;;;3.90;3.23;;;28.80;53.40;;;;;;5070716;28;20221;-71
2023/07/19 08:27:51;;;;;;;4.30;2.70;;;28.90;53.50;;;;;;5073578;28;20192;-71
2023/07/19 08:30:18;;;;;;;4.93;3.30;;;29.00;53.50;;;;;;5090436;28;20215;-71
2023/07/19 08:32:48;;;;;;;4.43;3.00;;;29.10;52.50;;;;;;5090495;28;20226;-71
2023/07/19 08:35:15;;;;;;;3.83;3.23;;;29.00;52.50;;;;;;5090550;28;20702;-71
2023/07/19 08:37:43;;;;;;;4.10;2.77;;;29.20;52.70;;;;;;5090136;28;20668;-71
2023/07/19 08:40:12;;;;;;;3.27;2.83;;;29.30;52.60;;;;;;5082319;28;20203;-71
2023/07/19 08:42:39;;;;;;;4.10;3.00;;;29.40;52.10;;;;;;5076577;28;20286;-71
2023/07/19 08:45:08;;;;;;;4.87;3.20;;;29.40;50.40;;;;;;5090115;28;20635;-71
2023/07/19 08:47:35;;;;;;;4.97;2.97;;;29.40;49.50;;;;;;5089853;28;20212;-71
2023/07/19 08:50:05;;;;;;;4.17;3.33;;;29.50;50.50;;;;;;5090181;28;20206;-71
2023/07/19 08:52:33;;;;;;;3.67;3.10;;;29.50;49.80;;;;;;5089240;28;20889;-71
2023/07/19 08:55:00;;;;;;;5.27;3.40;;;29.50;50.30;;;;;;5089797;28;20575;-71
2023/07/19 08:57:27;;;;;;;5.43;2.93;;;29.50;48.20;;;;;;5090007;28;20629;-71
2023/07/19 08:59:54;;;;;;;3.10;2.80;;;29.60;48.70;;;;;;5089965;28;20216;-71
2023/07/19 09:02:21;;;;;;;4.20;3.03;;;29.70;49.00;;;;;;5090296;28;20212;-71
2023/07/19 09:05:10;;;;;;;4.43;3.13;;;29.90;47.70;;;;;;5077831;28;20197;-71
2023/07/19 09:07:38;;;;;;;4.20;2.57;;;30.00;47.00;;;;;;5069716;28;20213;-71
2023/07/19 09:10:07;;;;;;;4.03;3.00;;;30.00;47.30;;;;;;5069705;28;20212;-71
2023/07/19 09:12:38;;;;;;;3.10;2.80;;;30.10;47.30;;;;;;5070286;28;20615;-71
2023/07/19 09:15:07;;;;;;;3.13;2.40;;;30.20;47.20;;;;;;5069450;28;20646;-71
2023/07/19 09:17:38;;;;;;;3.70;2.40;;;30.30;45.80;;;;;;5087874;28;20213;-71
2023/07/19 09:20:06;;;;;;;5.10;2.50;;;30.40;45.40;;;;;;5089402;28;20690;-71
2023/07/19 09:22:36;;;;;;;4.93;2.80;;;30.50;45.90;;;;;;5090120;28;20204;-71
2023/07/19 09:25:05;;;;;;;5.50;2.67;;;30.60;46.20;;;;;;5090026;28;20232;-71
2023/07/19 09:27:32;;;;;;;2.57;2.37;;;30.60;45.50;;;;;;5085716;28;20255;-71
2023/07/19 09:30:03;;;;;;;3.67;2.60;;;30.70;45.90;;;;;;5077434;28;20238;-71
2023/07/19 09:32:30;;;;;;;3.20;2.67;;;30.80;46.30;;;;;;5090043;28;20648;-71
2023/07/19 09:34:58;;;;;;;3.23;2.70;;;30.90;45.90;;;;;;5089983;28;20264;-71
2023/07/19 09:37:25;;;;;;;5.30;2.70;;;31.00;45.20;;;;;;5090001;28;20262;-71
2023/07/19 09:39:55;;;;;;;4.87;2.70;;;31.10;45.30;;;;;;5081276;28;20212;-71
2023/07/19 09:42:21;;;;;;;2.63;2.07;;;31.10;44.50;;;;;;5073775;28;20286;-71
2023/07/19 09:44:50;;;;;;;3.57;2.43;;;31.10;43.90;;;;;;5089371;28;20282;-71
2023/07/19 09:47:18;;;;;;;5.20;2.33;;;31.20;43.80;;;;;;5089985;28;20300;-71
2023/07/19 09:49:45;;;;;;;7.97;2.30;;;31.30;43.50;;;;;;5089661;28;20299;-71
2023/07/19 09:52:17;;;;;;;5.53;2.20;;;31.40;42.10;;;;;;5089669;28;20213;-71
2023/07/19 09:54:44;;;;;;;3.70;2.10;;;31.30;41.90;;;;;;5089733;28;20602;-71
2023/07/19 09:57:13;;;;;;;2.40;1.80;;;31.50;44.00;;;;;;5089189;28;20299;-71
2023/07/19 09:59:44;;;;;;;6.43;2.00;;;31.70;44.00;;;;;;5089582;28;20255;-71
2023/07/19 10:02:12;;;;;;;4.57;2.20;;;31.80;42.60;;;;;;5089581;28;20700;-71
2023/07/19 10:04:42;;;;;;;3.63;2.73;;;31.90;42.10;;;;;;5078177;28;20620;-71
2023/07/19 10:07:11;;;;;;;5.70;2.63;;;31.90;41.80;;;;;;5069364;28;20212;-71
2023/07/19 10:09:41;;;;;;;5.20;2.20;;;31.80;41.10;;;;;;5069178;28;20218;-71
2023/07/19 10:12:25;;;;;;;3.73;2.07;;;31.80;41.90;;;;;;5069598;28;20586;-71
2023/07/19 10:14:56;;;;;;;4.37;2.00;;;31.90;41.50;;;;;;5069379;28;20274;-71
2023/07/19 10:17:24;;;;;;;4.33;2.10;;;32.10;41.80;;;;;;5085733;28;20286;-71
2023/07/19 10:20:14;;;;;;;3.47;1.90;;;32.20;41.20;;;;;;5089374;28;20826;-71
2023/07/19 10:22:48;;;;;;;3.13;2.13;;;32.20;40.20;;;;;;5083814;28;20225;-71
2023/07/19 10:25:20;;;;;;;5.97;2.10;;;32.30;41.60;;;;;;5089148;28;20206;-71
2023/07/19 10:27:57;;;;;;;3.57;1.90;;;32.40;40.90;;;;;;5084772;28;20225;-71
2023/07/19 10:30:39;;;;;;;5.07;2.03;;;32.40;39.90;;;;;;5078167;28;20190;-71
2023/07/19 10:33:05;;;;;;;4.10;2.10;;;32.30;40.10;;;;;;5092564;28;20302;-71
2023/07/19 10:35:33;;;;;;;2.97;2.33;;;32.40;41.10;;;;;;5092914;28;20222;-71
2023/07/19 10:38:00;;;;;;;6.17;2.20;;;32.40;40.90;;;;;;5092825;28;20293;-71
2023/07/19 10:40:26;;;;;;;3.57;1.90;;;32.50;39.80;;;;;;5085406;28;20234;-71
2023/07/19 10:42:55;;;;;;;3.33;2.00;;;32.40;39.20;;;;;;5080690;28;20229;-69
2023/07/19 10:45:25;;;;;;;3.50;2.13;;;32.60;39.80;;;;;;5092878;28;20275;-72
2023/07/19 10:47:52;;;;;;;3.70;2.10;;;32.70;40.10;;;;;;5092336;28;20205;-72
2023/07/19 10:50:19;;;;;;;3.70;2.47;;;32.80;40.30;;;;;;5092665;28;20682;-72
2023/07/19 10:52:46;;;;;;;5.10;2.43;;;32.90;39.90;;;;;;5092228;28;20233;-71
2023/07/19 10:55:13;;;;;;;2.83;2.50;;;32.80;39.70;;;;;;5092153;28;20230;-71
2023/07/19 10:57:40;;;;;;;3.37;2.53;;;32.70;40.30;;;;;;5092206;28;20720;-71
2023/07/19 11:00:12;;;;;;;3.70;2.23;;;32.70;40.40;;;;;;5092170;28;20229;-71
2023/07/19 11:02:40;;;;;;;5.57;2.37;;;32.60;39.60;;;;;;5092585;28;20200;-71
2023/07/19 11:05:08;;;;;;;4.57;2.40;;;32.60;41.70;;;;;;5079733;28;20250;-71
2023/07/19 11:07:36;;;;;;;3.60;2.10;;;32.80;40.90;;;;;;5071982;28;20246;-71
2023/07/19 11:10:03;;;;;;;3.50;2.33;;;32.90;39.60;;;;;;5071950;28;20236;-71
2023/07/19 11:12:31;;;;;;;4.27;2.67;;;33.10;39.70;;;;;;5071928;28;20204;-71
2023/07/19 11:15:01;;;;;;;6.10;2.43;;;33.20;39.10;;;;;;5072034;28;20224;-71
2023/07/19 11:17:31;;;;;;;3.47;2.40;;;33.30;39.20;;;;;;5084326;28;20294;-71
2023/07/19 11:19:59;;;;;;;5.07;2.47;;;33.30;38.70;;;;;;5092177;28;20297;-71
2023/07/19 11:22:28;;;;;;;3.50;2.40;;;33.30;38.70;;;;;;5092241;28;20699;-71
2023/07/19 11:24:56;;;;;;;4.40;2.43;;;33.40;38.60;;;;;;5091691;28;20204;-71
2023/07/19 11:27:35;;;;;;;4.33;2.67;;;33.50;38.40;;;;;;5091769;28;20235;-71
2023/07/19 11:30:02;;;;;;;2.97;2.30;;;33.50;38.20;;;;;;5075637;28;20193;-71
2023/07/19 11:32:30;;;;;;;5.00;2.80;;;33.60;38.70;;;;;;5071497;28;20656;-71
2023/07/19 11:34:58;;;;;;;4.23;2.80;;;33.70;38.30;;;;;;5071463;28;20295;-71
2023/07/19 11:37:27;;;;;;;6.77;2.80;;;33.70;38.50;;;;;;5071269;28;20680;-71
2023/07/19 11:39:57;;;;;;;3.77;2.40;;;33.70;39.20;;;;;;5070781;28;20303;-71
2023/07/19 11:42:45;;;;;;;6.27;2.90;;;33.70;39.10;;;;;;5085139;28;20299;-71
2023/07/19 11:45:14;;;;;;;4.53;2.73;;;33.80;39.40;;;;;;5071235;28;20227;-71
2023/07/19 11:47:43;;;;;;;3.77;2.80;;;33.90;39.70;;;;;;5071295;28;20294;-71
2023/07/19 11:50:10;;;;;;;5.43;3.07;;;33.90;39.30;;;;;;5071411;28;20628;-71
2023/07/19 11:52:46;;;;;;;5.70;3.23;;;34.00;39.80;;;;;;5073560;28;20228;-71
2023/07/19 11:55:14;;;;;;;4.83;3.10;;;34.10;39.60;;;;;;5091085;28;20227;-71
2023/07/19 11:57:42;;;;;;;5.00;2.80;;;34.00;39.70;;;;;;5091303;28;20204;-71
2023/07/19 12:00:11;;;;;;;4.73;3.00;;;34.10;39.70;;;;;;5091290;28;20216;-71
2023/07/19 12:02:38;;;;;;;3.63;2.80;;;34.00;39.80;;;;;;5091280;28;20570;-71
2023/07/19 12:05:07;;;;;;;3.47;3.10;;;33.90;40.60;;;;;;5084658;28;20822;-71
2023/07/19 12:07:34;;;;;;;5.90;2.97;;;33.90;40.30;;;;;;5070623;28;20256;-71
2023/07/19 12:10:03;;;;;;;6.73;3.03;;;33.70;40.40;;;;;;5070584;28;20208;-71
2023/07/19 12:12:31;;;;;;;4.17;3.00;;;33.70;40.90;;;;;;5070538;28;20664;-71
2023/07/19 12:15:00;;;;;;;3.97;3.03;;;33.80;41.30;;;;;;5070808;28;20313;-71
2023/07/19 12:17:27;;;;;;;5.67;3.10;;;33.80;40.90;;;;;;5071282;28;20562;-71
2023/07/19 12:19:54;;;;;;;5.13;3.27;;;33.70;41.30;;;;;;5070715;28;20204;-71
2023/07/19 12:22:22;;;;;;;5.17;3.40;;;33.70;41.70;;;;;;5070223;28;20693;-71
2023/07/19 12:24:49;;;;;;;4.90;3.47;;;33.60;41.80;;;;;;5070321;28;20205;-71
2023/07/19 12:27:17;;;;;;;3.53;3.23;;;33.60;41.80;;;;;;5070378;28;20220;-71
2023/07/19 12:29:44;;;;;;;6.63;4.20;;;33.40;42.30;;;;;;5071422;28;20257;-71
2023/07/19 12:32:11;;;;;;;6.27;3.17;;;33.30;43.00;;;;;;5070180;28;20300;-71
2023/07/19 12:34:38;;;;;;;7.00;3.50;;;33.30;43.20;;;;;;5070293;28;20299;-71
2023/07/19 12:37:05;;;;;;;4.03;3.40;;;33.50;43.70;;;;;;5069947;28;20255;-71
2023/07/19 12:39:33;;;;;;;4.70;3.40;;;33.60;42.60;;;;;;5070029;28;20266;-71
2023/07/19 12:42:00;;;;;;;3.40;2.60;;;33.80;42.50;;;;;;5075672;28;20287;-71
2023/07/19 12:44:27;;;;;;;3.83;3.13;;;34.10;43.60;;;;;;5069796;28;20311;-71
2023/07/19 12:46:54;;;;;;;3.87;3.10;;;34.30;44.10;;;;;;5070230;28;20554;-71
2023/07/19 12:49:21;;;;;;;3.07;2.70;;;34.40;44.00;;;;;;5069792;28;20726;-71
2023/07/19 12:51:49;;;;;;;3.33;3.03;;;34.30;44.20;;;;;;5069743;28;20207;-71
2023/07/19 12:54:16;;;;;;;3.93;3.03;;;34.40;44.60;;;;;;5079517;28;20232;-71